createdAt,value
2022-09-20T00:01:42.384Z,11.68
2022-09-20T00:04:12.236Z,11.75
2022-09-20T00:06:41.680Z,11.70
2022-09-20T00:09:09.913Z,11.67
2022-09-20T00:11:38.526Z,11.40
2022-09-20T00:14:11.009Z,11.27
2022-09-20T00:16:41.692Z,11.07
2022-09-20T00:19:16.024Z,11.07
2022-09-20T00:21:45.610Z,11.01
2022-09-20T00:24:14.011Z,11.09
2022-09-20T00:26:42.844Z,11.10
2022-09-20T00:29:11.950Z,11.02
2022-09-20T00:31:41.484Z,11.00
2022-09-20T00:34:41.164Z,10.80
2022-09-20T00:37:10.386Z,11.04
2022-09-20T00:39:38.143Z,11.28
2022-09-20T00:42:06.583Z,11.46
2022-09-20T00:44:46.158Z,11.36
2022-09-20T00:47:20.646Z,11.30
2022-09-20T00:49:49.611Z,11.35
2022-09-20T00:52:19.408Z,11.27
2022-09-20T00:54:48.170Z,11.15
2022-09-20T00:57:16.041Z,11.04
2022-09-20T00:59:51.176Z,10.89
2022-09-20T01:02:25.121Z,10.77
2022-09-20T01:04:53.682Z,10.73
2022-09-20T01:07:24.077Z,10.76
2022-09-20T01:09:53.271Z,10.58
2022-09-20T01:12:24.721Z,10.42
2022-09-20T01:14:55.736Z,10.32
2022-09-20T01:17:26.942Z,10.25
2022-09-20T01:20:09.337Z,10.21
2022-09-20T01:22:46.973Z,10.11
2022-09-20T01:25:18.509Z,10.13
2022-09-20T01:27:49.872Z,10.13
2022-09-20T01:30:21.242Z,10.12
2022-09-20T01:33:03.827Z,10.09
2022-09-20T01:35:37.328Z,10.08
2022-09-20T01:38:20.469Z,10.12
2022-09-20T01:40:57.356Z,10.00
2022-09-20T01:43:35.001Z,9.84
2022-09-20T01:46:12.359Z,9.71
2022-09-20T01:48:41.138Z,9.64
2022-09-20T01:51:34.023Z,9.64
2022-09-20T01:54:38.814Z,9.52
2022-09-20T01:57:31.306Z,9.33
2022-09-20T02:00:14.520Z,9.28
2022-09-20T02:03:13.326Z,9.30
2022-09-20T02:06:13.995Z,9.28
2022-09-20T02:09:11.627Z,9.18
2022-09-20T02:11:52.636Z,9.12
2022-09-20T02:14:33.091Z,9.12
2022-09-20T02:17:12.761Z,9.17
2022-09-20T02:20:05.655Z,9.22
2022-09-20T02:22:44.461Z,9.23
2022-09-20T02:25:54.679Z,9.19
2022-09-20T02:28:32.854Z,9.25
2022-09-20T02:31:14.406Z,9.20
2022-09-20T02:34:04.945Z,9.16
2022-09-20T02:36:45.028Z,9.16
2022-09-20T02:39:18.034Z,9.10
2022-09-20T02:42:04.468Z,9.15
2022-09-20T02:44:48.415Z,9.28
2022-09-20T02:47:26.476Z,9.44
2022-09-20T02:50:06.634Z,9.55
2022-09-20T02:52:44.351Z,9.60
2022-09-20T02:55:20.993Z,9.50
2022-09-20T02:58:02.856Z,9.40
2022-09-20T03:00:38.545Z,9.36
2022-09-20T03:03:14.538Z,9.38
2022-09-20T03:05:53.470Z,9.34
2022-09-20T03:08:34.559Z,9.33
2022-09-20T03:11:16.615Z,9.24
2022-09-20T03:13:56.167Z,9.23
2022-09-20T03:16:36.912Z,9.22
2022-09-20T03:19:18.151Z,9.05
2022-09-20T03:22:00.900Z,9.10
2022-09-20T03:28:08.066Z,8.93
2022-09-20T03:30:52.561Z,8.91
2022-09-20T03:33:30.547Z,9.07
2022-09-20T03:36:14.554Z,9.06
2022-09-20T03:39:05.985Z,9.18
2022-09-20T03:41:48.287Z,8.98
2022-09-20T03:44:36.664Z,8.76
2022-09-20T03:47:18.397Z,9.00
2022-09-20T03:50:00.019Z,8.83
2022-09-20T03:52:53.306Z,8.95
2022-09-20T03:55:56.814Z,9.02
2022-09-20T03:58:35.993Z,8.92
2022-09-20T04:01:29.203Z,8.97
2022-09-20T04:04:05.163Z,8.83
2022-09-20T04:07:00.330Z,8.94
2022-09-20T04:10:02.276Z,8.53
2022-09-20T04:12:41.769Z,8.61
2022-09-20T04:15:27.454Z,8.73
2022-09-20T04:18:02.335Z,8.81
2022-09-20T04:20:38.672Z,8.84
2022-09-20T04:23:21.142Z,8.86
2022-09-20T04:25:51.924Z,8.88
2022-09-20T04:28:26.943Z,8.77
2022-09-20T04:31:01.153Z,8.74
2022-09-20T04:33:35.426Z,8.74
2022-09-20T04:36:30.495Z,8.74
2022-09-20T04:39:08.315Z,8.68
2022-09-20T04:42:08.737Z,8.61
2022-09-20T04:45:08.559Z,8.64
2022-09-20T04:48:08.561Z,8.58
2022-09-20T04:51:19.213Z,8.53
2022-09-20T04:54:15.293Z,8.61
2022-09-20T04:57:06.869Z,8.52
2022-09-20T05:00:01.080Z,8.31
2022-09-20T05:03:01.499Z,8.58
2022-09-20T05:05:50.468Z,8.61
2022-09-20T05:09:05.497Z,8.73
2022-09-20T05:11:58.080Z,8.76
2022-09-20T05:15:02.216Z,8.81
2022-09-20T05:17:43.808Z,8.86
2022-09-20T05:20:43.983Z,8.74
2022-09-20T05:23:29.469Z,8.73
2022-09-20T05:26:08.526Z,8.76
2022-09-20T05:28:45.822Z,8.90
2022-09-20T05:31:21.326Z,8.83
2022-09-20T05:33:57.556Z,8.81
2022-09-20T05:36:34.829Z,8.90
2022-09-20T05:39:14.029Z,9.07
2022-09-20T05:41:46.991Z,9.35
2022-09-20T05:44:28.879Z,9.42
2022-09-20T05:47:05.218Z,9.32
2022-09-20T05:49:48.461Z,9.40
2022-09-20T05:52:31.152Z,9.78
2022-09-20T05:55:20.664Z,9.96
2022-09-20T05:58:05.336Z,9.93
2022-09-20T06:00:40.797Z,9.84
2022-09-20T06:03:20.024Z,9.99
2022-09-20T06:06:00.248Z,10.29
2022-09-20T06:08:58.113Z,10.71
2022-09-20T06:12:01.869Z,11.09
2022-09-20T06:14:43.376Z,11.47
2022-09-20T06:17:30.133Z,11.72
2022-09-20T06:20:19.552Z,11.93
2022-09-20T06:22:52.527Z,12.14
2022-09-20T06:25:25.563Z,12.27
2022-09-20T06:27:59.429Z,12.42
2022-09-20T06:30:31.202Z,12.52
2022-09-20T06:33:01.949Z,12.65
2022-09-20T06:35:38.297Z,12.87
2022-09-20T06:38:50.417Z,12.98
2022-09-20T06:41:30.788Z,13.07
2022-09-20T06:44:04.688Z,13.21
2022-09-20T06:46:34.932Z,13.26
2022-09-20T06:49:04.235Z,13.24
2022-09-20T06:51:36.969Z,13.30
2022-09-20T06:54:11.592Z,13.08
2022-09-20T06:56:40.153Z,12.91
2022-09-20T06:59:10.352Z,12.74
2022-09-20T07:01:46.132Z,12.70
2022-09-20T07:04:14.509Z,13.17
2022-09-20T07:06:43.030Z,14.54
2022-09-20T07:09:13.059Z,16.30
2022-09-20T07:11:41.183Z,18.04
2022-09-20T07:14:09.343Z,19.65
2022-09-20T07:16:40.040Z,20.33
2022-09-20T07:19:08.289Z,20.29
2022-09-20T07:21:36.262Z,19.70
2022-09-20T07:24:04.452Z,19.00
2022-09-20T07:26:34.254Z,18.25
2022-09-20T07:29:02.739Z,17.17
2022-09-20T07:31:31.609Z,18.56
2022-09-20T07:34:00.648Z,17.85
2022-09-20T07:36:29.431Z,15.58
2022-09-20T07:38:57.565Z,16.85
2022-09-20T07:41:32.657Z,17.64
2022-09-20T07:44:21.730Z,18.99
2022-09-20T07:46:50.445Z,19.99
2022-09-20T07:49:19.695Z,17.25
2022-09-20T07:51:47.747Z,15.21
2022-09-20T07:54:16.431Z,13.43
2022-09-20T07:56:47.903Z,13.49
2022-09-20T07:59:17.944Z,14.98
2022-09-20T08:01:46.303Z,15.69
2022-09-20T08:04:14.645Z,16.84
2022-09-20T08:06:44.510Z,17.60
2022-09-20T08:09:15.112Z,16.69
2022-09-20T08:11:44.123Z,15.25
2022-09-20T08:14:18.521Z,15.16
2022-09-20T08:16:51.954Z,14.38
2022-09-20T08:19:21.787Z,14.04
2022-09-20T08:21:51.807Z,14.02
2022-09-20T08:24:22.315Z,13.57
2022-09-20T08:26:51.669Z,14.05
2022-09-20T08:29:21.166Z,13.77
2022-09-20T08:31:49.748Z,13.95
2022-09-20T08:34:18.607Z,15.05
2022-09-20T08:36:54.330Z,15.20
2022-09-20T08:42:18.459Z,15.30
2022-09-20T08:44:59.056Z,14.23
2022-09-20T08:47:31.202Z,15.31
2022-09-20T08:50:08.953Z,14.75
2022-09-20T08:52:40.443Z,14.65
2022-09-20T08:55:16.962Z,14.93
2022-09-20T08:57:50.044Z,14.80
2022-09-20T09:00:21.636Z,14.82
2022-09-20T09:02:53.299Z,14.79
2022-09-20T09:05:32.682Z,15.17
2022-09-20T09:08:04.568Z,14.89
2022-09-20T09:10:42.548Z,15.44
2022-09-20T09:13:20.336Z,15.36
2022-09-20T09:15:55.234Z,15.58
2022-09-20T09:18:31.598Z,15.89
2022-09-20T09:21:04.514Z,16.36
2022-09-20T09:23:41.525Z,16.47
2022-09-20T09:26:17.931Z,17.30
2022-09-20T09:28:46.024Z,18.92
2022-09-20T09:31:25.863Z,20.54
2022-09-20T09:33:53.901Z,21.46
2022-09-20T09:36:25.366Z,22.97
2022-09-20T09:39:18.065Z,21.25
2022-09-20T09:41:46.680Z,17.44
2022-09-20T09:44:22.581Z,15.40
2022-09-20T09:46:53.667Z,14.74
2022-09-20T09:49:23.794Z,14.24
2022-09-20T09:52:14.474Z,15.11
2022-09-20T09:54:49.168Z,17.78
2022-09-20T09:57:32.172Z,20.53
2022-09-20T10:00:22.172Z,19.68
2022-09-20T10:03:12.910Z,20.96
2022-09-20T10:05:52.079Z,22.96
2022-09-20T10:08:28.268Z,18.91
2022-09-20T10:11:11.315Z,17.78
2022-09-20T10:13:51.238Z,20.05
2022-09-20T10:16:37.950Z,19.00
2022-09-20T10:19:22.781Z,19.45
2022-09-20T10:21:58.034Z,19.28
2022-09-20T10:24:35.593Z,17.41
2022-09-20T10:27:16.516Z,18.07
2022-09-20T10:29:58.510Z,16.83
2022-09-20T10:32:45.468Z,17.18
2022-09-20T10:35:34.927Z,16.91
2022-09-20T10:38:19.974Z,16.49
2022-09-20T10:41:41.111Z,16.10
2022-09-20T10:44:27.485Z,16.86
2022-09-20T10:47:04.652Z,20.66
2022-09-20T10:49:45.138Z,21.77
2022-09-20T10:52:31.816Z,20.53
2022-09-20T10:55:25.618Z,20.93
2022-09-20T10:58:23.716Z,22.00
2022-09-20T11:01:02.468Z,20.11
2022-09-20T11:03:52.716Z,19.89
2022-09-20T11:06:29.686Z,19.65
2022-09-20T11:09:03.035Z,19.31
2022-09-20T11:11:35.865Z,19.44
2022-09-20T11:14:09.217Z,19.63
2022-09-20T11:16:44.967Z,19.91
2022-09-20T11:19:23.487Z,17.47
2022-09-20T11:21:57.331Z,15.43
2022-09-20T11:24:35.099Z,15.05
2022-09-20T11:27:11.470Z,15.20
2022-09-20T11:29:45.395Z,15.65
2022-09-20T11:32:21.515Z,16.23
2022-09-20T11:34:55.556Z,17.53
2022-09-20T11:37:28.651Z,17.86
2022-09-20T11:40:03.061Z,18.49
2022-09-20T11:42:36.637Z,18.38
2022-09-20T11:45:05.250Z,18.87
2022-09-20T11:47:54.545Z,18.38
2022-09-20T11:51:07.912Z,17.77
2022-09-20T11:53:51.583Z,18.45
2022-09-20T11:56:24.540Z,24.23
2022-09-20T11:58:55.224Z,23.65
2022-09-20T12:01:30.383Z,26.63
2022-09-20T12:04:30.717Z,26.44
2022-09-20T12:07:04.560Z,25.67
2022-09-20T12:09:39.549Z,20.91
2022-09-20T12:12:24.718Z,18.93
2022-09-20T12:14:58.555Z,17.48
2022-09-20T12:18:13.680Z,16.48
2022-09-20T12:21:06.509Z,17.41
2022-09-20T12:24:11.778Z,19.66
2022-09-20T12:26:47.136Z,22.45
2022-09-20T12:30:03.581Z,21.49
2022-09-20T12:32:57.534Z,22.15
2022-09-20T12:36:00.632Z,24.05
2022-09-20T12:38:36.059Z,22.45
2022-09-20T12:41:09.081Z,22.68
2022-09-20T12:43:41.334Z,24.87
2022-09-20T12:46:25.195Z,23.89
2022-09-20T12:49:11.255Z,24.47
2022-09-20T12:51:57.070Z,21.98
2022-09-20T12:54:26.141Z,20.89
2022-09-20T12:56:55.186Z,21.80
2022-09-20T12:59:27.269Z,22.66
2022-09-20T13:01:57.402Z,21.87
2022-09-20T13:04:57.320Z,19.46
2022-09-20T13:07:55.279Z,17.68
2022-09-20T13:10:33.787Z,19.42
2022-09-20T13:13:32.836Z,21.56
2022-09-20T13:16:06.011Z,19.98
2022-09-20T13:18:37.928Z,19.98
2022-09-20T13:21:09.915Z,22.10
2022-09-20T13:23:49.861Z,23.15
2022-09-20T13:26:27.211Z,17.64
2022-09-20T13:28:59.164Z,16.36
2022-09-20T13:31:33.808Z,15.18
2022-09-20T13:34:16.014Z,14.56
2022-09-20T13:36:46.836Z,13.45
2022-09-20T13:39:36.898Z,13.92
2022-09-20T13:42:19.928Z,14.10
2022-09-20T13:44:49.146Z,14.53
2022-09-20T13:47:25.676Z,16.82
2022-09-20T13:50:02.316Z,18.37
2022-09-20T13:52:33.110Z,17.71
2022-09-20T13:55:01.099Z,16.40
2022-09-20T13:57:32.145Z,15.92
2022-09-20T14:00:01.699Z,15.61
2022-09-20T14:02:40.313Z,16.04
2022-09-20T14:05:17.059Z,16.98
2022-09-20T14:07:47.564Z,20.35
2022-09-20T14:10:34.646Z,26.20
2022-09-20T14:13:07.483Z,31.37
2022-09-20T14:15:38.793Z,35.45
2022-09-20T14:18:08.916Z,35.56
2022-09-20T14:20:36.887Z,31.89
2022-09-20T14:23:07.393Z,25.28
2022-09-20T14:25:35.346Z,22.76
2022-09-20T14:28:09.286Z,19.11
2022-09-20T14:30:38.625Z,18.16
2022-09-20T14:33:08.418Z,18.79
2022-09-20T14:35:36.403Z,19.31
2022-09-20T14:38:13.646Z,18.98
2022-09-20T14:40:44.723Z,19.04
2022-09-20T14:43:26.294Z,18.90
2022-09-20T14:45:57.089Z,19.01
2022-09-20T14:48:41.087Z,19.77
2022-09-20T14:51:27.071Z,20.28
2022-09-20T14:54:24.377Z,20.57
2022-09-20T14:56:53.100Z,20.53
2022-09-20T14:59:33.834Z,20.17
2022-09-20T15:02:08.062Z,17.50
2022-09-20T15:04:40.289Z,17.53
2022-09-20T15:07:11.377Z,17.40
2022-09-20T15:09:41.223Z,15.82
2022-09-20T15:12:17.104Z,15.31
2022-09-20T15:14:47.469Z,15.25
2022-09-20T15:17:18.009Z,15.47
2022-09-20T15:19:46.343Z,15.30
2022-09-20T15:22:15.494Z,15.33
2022-09-20T15:27:13.243Z,15.30
2022-09-20T15:29:41.130Z,15.52
2022-09-20T15:32:11.700Z,15.73
2022-09-20T15:34:39.663Z,15.75
2022-09-20T15:37:07.399Z,15.78
2022-09-20T15:39:35.370Z,15.72
2022-09-20T15:42:05.087Z,15.92
2022-09-20T15:44:33.169Z,16.50
2022-09-20T15:47:01.620Z,17.48
2022-09-20T15:49:31.191Z,18.65
2022-09-20T15:51:59.259Z,18.58
2022-09-20T15:54:27.071Z,19.28
2022-09-20T15:56:54.725Z,19.71
2022-09-20T15:59:24.352Z,20.14
2022-09-20T16:01:52.056Z,20.39
2022-09-20T16:04:21.246Z,18.29
2022-09-20T16:06:50.539Z,19.25
2022-09-20T16:09:19.372Z,19.15
2022-09-20T16:11:48.249Z,18.21
2022-09-20T16:14:16.464Z,18.23
2022-09-20T16:16:45.728Z,17.76
2022-09-20T16:19:20.814Z,16.69
2022-09-20T16:21:55.031Z,17.57
2022-09-20T16:24:26.210Z,18.25
2022-09-20T16:26:54.560Z,17.82
2022-09-20T16:29:23.513Z,16.75
2022-09-20T16:31:54.753Z,17.21
2022-09-20T16:34:28.686Z,17.63
2022-09-20T16:36:58.980Z,18.05
2022-09-20T16:39:28.605Z,17.45
2022-09-20T16:42:03.503Z,17.13
2022-09-20T16:44:31.985Z,16.75
2022-09-20T16:47:01.054Z,15.40
2022-09-20T16:49:29.740Z,14.76
2022-09-20T16:51:57.433Z,14.44
2022-09-20T16:54:29.758Z,14.24
2022-09-20T16:56:59.698Z,14.05
2022-09-20T16:59:27.670Z,13.94
2022-09-20T17:01:56.236Z,13.79
2022-09-20T17:04:26.680Z,13.67
2022-09-20T17:06:54.543Z,13.51
2022-09-20T17:09:22.283Z,13.43
2022-09-20T17:11:51.897Z,13.53
2022-09-20T17:14:22.080Z,13.48
2022-09-20T17:16:50.407Z,13.32
2022-09-20T17:19:20.156Z,13.20
2022-09-20T17:21:51.374Z,13.17
2022-09-20T17:24:20.236Z,13.10
2022-09-20T17:26:48.933Z,12.95
2022-09-20T17:29:17.799Z,12.85
2022-09-20T17:31:53.241Z,12.75
2022-09-20T17:34:22.938Z,12.71
2022-09-20T17:36:52.012Z,12.72
2022-09-20T17:39:21.232Z,12.62
2022-09-20T17:41:50.667Z,12.53
2022-09-20T17:44:18.497Z,12.43
2022-09-20T17:46:49.462Z,12.38
2022-09-20T17:49:19.481Z,12.30
2022-09-20T17:51:48.850Z,12.24
2022-09-20T17:54:19.237Z,12.23
2022-09-20T17:56:50.371Z,12.19
2022-09-20T17:59:20.027Z,12.19
2022-09-20T18:01:49.681Z,12.13
2022-09-20T18:04:18.348Z,12.12
2022-09-20T18:06:47.800Z,12.06
2022-09-20T18:09:19.091Z,12.02
2022-09-20T18:11:50.022Z,12.03
2022-09-20T18:14:20.387Z,12.13
2022-09-20T18:16:49.030Z,12.25
2022-09-20T18:19:17.183Z,12.38
2022-09-20T18:21:47.931Z,12.56
2022-09-20T18:24:16.311Z,12.65
2022-09-20T18:26:45.867Z,12.82
2022-09-20T18:29:18.075Z,12.88
2022-09-20T18:31:49.652Z,12.79
2022-09-20T18:34:19.131Z,12.83
2022-09-20T18:36:51.831Z,12.85
2022-09-20T18:39:21.028Z,12.91
2022-09-20T18:41:50.730Z,13.29
2022-09-20T18:44:19.321Z,13.34
2022-09-20T18:46:51.236Z,13.63
2022-09-20T18:49:21.095Z,13.68
2022-09-20T18:51:49.667Z,13.82
2022-09-20T18:54:33.498Z,14.06
2022-09-20T18:57:03.517Z,14.26
2022-09-20T18:59:31.723Z,14.44
2022-09-20T19:02:25.549Z,14.46
2022-09-20T19:05:14.141Z,14.44
2022-09-20T19:07:53.290Z,14.48
2022-09-20T19:10:28.115Z,14.51
2022-09-20T19:13:03.621Z,13.88
2022-09-20T19:15:46.657Z,13.75
2022-09-20T19:18:31.727Z,13.80
2022-09-20T19:21:06.680Z,14.13
2022-09-20T19:24:02.399Z,14.30
2022-09-20T19:26:38.246Z,14.34
2022-09-20T19:29:18.202Z,14.42
2022-09-20T19:31:48.818Z,14.45
2022-09-20T19:34:21.247Z,14.40
2022-09-20T19:37:02.076Z,14.15
2022-09-20T19:39:44.442Z,13.38
2022-09-20T19:42:22.343Z,13.42
2022-09-20T19:44:58.406Z,13.75
2022-09-20T19:47:43.626Z,13.89
2022-09-20T19:50:17.310Z,14.00
2022-09-20T19:52:46.044Z,14.13
2022-09-20T19:55:15.215Z,14.16
2022-09-20T19:57:47.084Z,14.21
2022-09-20T20:00:19.463Z,14.20
2022-09-20T20:02:48.460Z,14.20
2022-09-20T20:05:19.687Z,14.13
2022-09-20T20:07:54.908Z,14.17
2022-09-20T20:10:28.872Z,14.25
2022-09-20T20:13:25.260Z,14.35
2022-09-20T20:16:01.695Z,14.45
2022-09-20T20:18:38.240Z,14.51
2022-09-20T20:21:13.683Z,14.50
2022-09-20T20:23:52.785Z,14.58
2022-09-20T20:26:23.401Z,14.61
2022-09-20T20:28:52.507Z,14.58
2022-09-20T20:31:23.369Z,14.47
2022-09-20T20:33:51.746Z,14.33
2022-09-20T20:36:19.610Z,14.23
2022-09-20T20:38:50.725Z,13.86
2022-09-20T20:41:21.791Z,13.18
2022-09-20T20:43:56.487Z,12.95
2022-09-20T20:46:27.194Z,13.07
2022-09-20T20:48:55.616Z,13.26
2022-09-20T20:51:24.105Z,13.27
2022-09-20T20:53:54.876Z,13.12
2022-09-20T20:56:25.708Z,12.69
2022-09-20T20:58:54.353Z,12.22
2022-09-20T21:01:24.005Z,11.92
2022-09-20T21:03:54.971Z,11.83
2022-09-20T21:06:24.979Z,11.83
2022-09-20T21:08:53.760Z,11.66
2022-09-20T21:11:24.539Z,11.75
2022-09-20T21:13:53.089Z,11.69
2022-09-20T21:16:22.901Z,11.36
2022-09-20T21:18:53.190Z,11.37
2022-09-20T21:21:23.267Z,11.52
2022-09-20T21:23:53.687Z,11.56
2022-09-20T21:26:23.055Z,11.64
2022-09-20T21:28:53.981Z,11.70
2022-09-20T21:31:23.861Z,11.59
2022-09-20T21:33:54.448Z,11.50
2022-09-20T21:36:27.417Z,11.48
2022-09-20T21:38:56.503Z,11.47
2022-09-20T21:41:27.363Z,11.36
2022-09-20T21:43:57.273Z,11.26
2022-09-20T21:46:28.274Z,11.18
2022-09-20T21:49:09.267Z,11.11
2022-09-20T21:51:40.350Z,11.04
2022-09-20T21:54:09.137Z,10.84
2022-09-20T21:56:38.923Z,10.84
2022-09-20T21:59:07.865Z,10.78
2022-09-20T22:01:37.817Z,10.58
2022-09-20T22:04:08.685Z,10.45
2022-09-20T22:06:47.909Z,10.30
2022-09-20T22:09:18.919Z,10.36
2022-09-20T22:11:48.892Z,10.40
2022-09-20T22:14:19.957Z,10.32
2022-09-20T22:16:51.258Z,10.38
2022-09-20T22:19:20.979Z,10.46
2022-09-20T22:21:51.039Z,10.45
2022-09-20T22:24:19.298Z,10.45
2022-09-20T22:26:49.410Z,10.33
2022-09-20T22:29:18.341Z,10.30
2022-09-20T22:31:48.313Z,10.34
2022-09-20T22:34:18.010Z,10.39
2022-09-20T22:36:47.523Z,10.05
2022-09-20T22:39:16.259Z,9.95
2022-09-20T22:41:44.945Z,9.93
2022-09-20T22:44:12.884Z,10.16
2022-09-20T22:46:41.686Z,10.32
2022-09-20T22:49:10.183Z,10.36
2022-09-20T22:51:38.744Z,10.34
2022-09-20T22:54:10.207Z,10.40
2022-09-20T22:56:41.336Z,10.52
2022-09-20T22:59:11.208Z,10.54
2022-09-20T23:01:42.467Z,10.57
2022-09-20T23:04:12.790Z,10.49
2022-09-20T23:06:42.230Z,10.40
2022-09-20T23:09:13.716Z,10.35
2022-09-20T23:11:42.701Z,10.23
2022-09-20T23:14:12.785Z,10.17
2022-09-20T23:16:41.082Z,10.03
2022-09-20T23:19:10.026Z,9.90
2022-09-20T23:21:39.451Z,9.79
2022-09-20T23:24:09.445Z,9.67
2022-09-20T23:26:40.212Z,9.64
2022-09-20T23:29:11.791Z,9.52
2022-09-20T23:31:41.663Z,9.51
2022-09-20T23:34:10.817Z,9.52
2022-09-20T23:36:40.949Z,9.51
2022-09-20T23:39:11.637Z,9.40
2022-09-20T23:41:43.237Z,9.52
2022-09-20T23:44:13.849Z,9.48
2022-09-20T23:46:42.801Z,9.49
2022-09-20T23:49:10.865Z,9.48
2022-09-20T23:51:40.979Z,9.42
2022-09-20T23:54:09.113Z,9.40
2022-09-20T23:56:38.382Z,9.44
2022-09-20T23:59:07.746Z,9.44
